sensor_id;sensor_type;location;lat;lon;timestamp;P1;durP1;ratioP1;P2;durP2;ratioP2
58338;SDS011;48278;52.704;6.536;2023-02-11T00:00:04;61.25;;;15.65;;
58338;SDS011;48278;52.704;6.536;2023-02-11T00:02:31;60.78;;;16.17;;
58338;SDS011;48278;52.704;6.536;2023-02-11T00:04:58;67.57;;;15.70;;
58338;SDS011;48278;52.704;6.536;2023-02-11T00:07:30;67.10;;;15.75;;
58338;SDS011;48278;52.704;6.536;2023-02-11T00:09:56;63.70;;;15.65;;
58338;SDS011;48278;52.704;6.536;2023-02-11T00:12:23;71.88;;;16.65;;
58338;SDS011;48278;52.704;6.536;2023-02-11T00:14:48;68.70;;;16.92;;
58338;SDS011;48278;52.704;6.536;2023-02-11T00:17:15;62.88;;;15.98;;
58338;SDS011;48278;52.704;6.536;2023-02-11T00:19:41;63.80;;;15.43;;
58338;SDS011;48278;52.704;6.536;2023-02-11T00:22:07;60.28;;;14.48;;
58338;SDS011;48278;52.704;6.536;2023-02-11T00:24:32;51.92;;;14.57;;
58338;SDS011;48278;52.704;6.536;2023-02-11T00:26:59;58.75;;;14.43;;
58338;SDS011;48278;52.704;6.536;2023-02-11T00:29:25;64.78;;;16.23;;
58338;SDS011;48278;52.704;6.536;2023-02-11T00:31:51;69.00;;;15.40;;
58338;SDS011;48278;52.704;6.536;2023-02-11T00:34:16;56.95;;;13.25;;
58338;SDS011;48278;52.704;6.536;2023-02-11T00:36:42;62.60;;;16.33;;
58338;SDS011;48278;52.704;6.536;2023-02-11T00:39:08;56.45;;;13.52;;
58338;SDS011;48278;52.704;6.536;2023-02-11T00:41:34;59.42;;;14.20;;
58338;SDS011;48278;52.704;6.536;2023-02-11T00:44:01;66.30;;;13.75;;
58338;SDS011;48278;52.704;6.536;2023-02-11T00:46:27;66.20;;;14.55;;
58338;SDS011;48278;52.704;6.536;2023-02-11T00:48:53;41.60;;;11.38;;
58338;SDS011;48278;52.704;6.536;2023-02-11T00:51:25;67.63;;;14.50;;
58338;SDS011;48278;52.704;6.536;2023-02-11T00:53:52;60.92;;;14.65;;
58338;SDS011;48278;52.704;6.536;2023-02-11T00:56:17;57.33;;;11.95;;
58338;SDS011;48278;52.704;6.536;2023-02-11T00:58:43;56.65;;;12.63;;
58338;SDS011;48278;52.704;6.536;2023-02-11T01:01:09;57.25;;;12.27;;
58338;SDS011;48278;52.704;6.536;2023-02-11T01:03:36;53.58;;;11.63;;
58338;SDS011;48278;52.704;6.536;2023-02-11T01:06:03;62.65;;;13.38;;
58338;SDS011;48278;52.704;6.536;2023-02-11T01:08:29;71.90;;;12.35;;
58338;SDS011;48278;52.704;6.536;2023-02-11T01:10:57;42.30;;;10.68;;
58338;SDS011;48278;52.704;6.536;2023-02-11T01:13:24;43.85;;;10.23;;
58338;SDS011;48278;52.704;6.536;2023-02-11T01:15:51;51.25;;;10.65;;
58338;SDS011;48278;52.704;6.536;2023-02-11T01:18:17;52.05;;;10.90;;
58338;SDS011;48278;52.704;6.536;2023-02-11T01:20:43;62.47;;;12.73;;
58338;SDS011;48278;52.704;6.536;2023-02-11T01:23:08;55.15;;;11.05;;
58338;SDS011;48278;52.704;6.536;2023-02-11T01:25:34;53.33;;;11.02;;
58338;SDS011;48278;52.704;6.536;2023-02-11T01:28:00;44.50;;;10.00;;
58338;SDS011;48278;52.704;6.536;2023-02-11T01:30:25;55.55;;;10.57;;
58338;SDS011;48278;52.704;6.536;2023-02-11T01:32:51;48.90;;;9.75;;
58338;SDS011;48278;52.704;6.536;2023-02-11T01:35:17;53.80;;;10.18;;
58338;SDS011;48278;52.704;6.536;2023-02-11T01:37:43;62.70;;;10.70;;
58338;SDS011;48278;52.704;6.536;2023-02-11T01:40:14;50.95;;;10.20;;
58338;SDS011;48278;52.704;6.536;2023-02-11T01:42:42;61.70;;;10.88;;
58338;SDS011;48278;52.704;6.536;2023-02-11T01:48:17;66.80;;;11.95;;
58338;SDS011;48278;52.704;6.536;2023-02-11T01:51:00;52.42;;;10.05;;
58338;SDS011;48278;52.704;6.536;2023-02-11T01:53:33;52.55;;;9.90;;
58338;SDS011;48278;52.704;6.536;2023-02-11T01:56:19;54.95;;;10.60;;
58338;SDS011;48278;52.704;6.536;2023-02-11T01:59:06;53.25;;;9.65;;
58338;SDS011;48278;52.704;6.536;2023-02-11T02:01:39;53.38;;;9.85;;
58338;SDS011;48278;52.704;6.536;2023-02-11T02:04:07;42.88;;;10.55;;
58338;SDS011;48278;52.704;6.536;2023-02-11T02:06:36;57.33;;;9.55;;
58338;SDS011;48278;52.704;6.536;2023-02-11T02:09:14;76.65;;;11.85;;
58338;SDS011;48278;52.704;6.536;2023-02-11T02:11:46;61.65;;;12.30;;
58338;SDS011;48278;52.704;6.536;2023-02-11T02:14:12;65.57;;;10.45;;
58338;SDS011;48278;52.704;6.536;2023-02-11T02:16:38;62.75;;;12.20;;
58338;SDS011;48278;52.704;6.536;2023-02-11T02:41:11;63.47;;;12.43;;
58338;SDS011;48278;52.704;6.536;2023-02-11T02:43:40;76.53;;;11.70;;
58338;SDS011;48278;52.704;6.536;2023-02-11T02:46:09;57.72;;;11.65;;
58338;SDS011;48278;52.704;6.536;2023-02-11T02:48:37;61.10;;;10.55;;
58338;SDS011;48278;52.704;6.536;2023-02-11T02:59:50;58.33;;;10.75;;
58338;SDS011;48278;52.704;6.536;2023-02-11T03:02:22;56.17;;;11.30;;
58338;SDS011;48278;52.704;6.536;2023-02-11T03:05:12;62.05;;;11.10;;
58338;SDS011;48278;52.704;6.536;2023-02-11T03:08:07;72.17;;;11.33;;
58338;SDS011;48278;52.704;6.536;2023-02-11T03:10:41;68.10;;;12.18;;
58338;SDS011;48278;52.704;6.536;2023-02-11T03:13:10;60.55;;;10.63;;
58338;SDS011;48278;52.704;6.536;2023-02-11T03:15:38;74.07;;;10.98;;
58338;SDS011;48278;52.704;6.536;2023-02-11T03:18:08;57.42;;;11.25;;
58338;SDS011;48278;52.704;6.536;2023-02-11T03:20:38;65.20;;;10.65;;
58338;SDS011;48278;52.704;6.536;2023-02-11T03:23:10;66.28;;;12.40;;
58338;SDS011;48278;52.704;6.536;2023-02-11T03:25:44;79.85;;;13.82;;
58338;SDS011;48278;52.704;6.536;2023-02-11T03:28:17;70.07;;;12.75;;
58338;SDS011;48278;52.704;6.536;2023-02-11T03:31:07;70.78;;;12.63;;
58338;SDS011;48278;52.704;6.536;2023-02-11T03:33:41;64.18;;;11.32;;
58338;SDS011;48278;52.704;6.536;2023-02-11T03:36:14;58.13;;;12.93;;
58338;SDS011;48278;52.704;6.536;2023-02-11T03:38:48;60.20;;;12.85;;
58338;SDS011;48278;52.704;6.536;2023-02-11T03:41:20;69.25;;;13.60;;
58338;SDS011;48278;52.704;6.536;2023-02-11T03:43:49;66.53;;;13.68;;
58338;SDS011;48278;52.704;6.536;2023-02-11T03:46:18;63.78;;;12.60;;
58338;SDS011;48278;52.704;6.536;2023-02-11T03:48:49;67.68;;;14.05;;
58338;SDS011;48278;52.704;6.536;2023-02-11T03:51:18;78.53;;;14.63;;
58338;SDS011;48278;52.704;6.536;2023-02-11T03:53:46;76.85;;;15.73;;
58338;SDS011;48278;52.704;6.536;2023-02-11T03:56:16;60.40;;;14.68;;
58338;SDS011;48278;52.704;6.536;2023-02-11T03:58:46;74.30;;;15.02;;
58338;SDS011;48278;52.704;6.536;2023-02-11T04:01:12;72.65;;;16.77;;
58338;SDS011;48278;52.704;6.536;2023-02-11T04:03:38;78.05;;;16.35;;
58338;SDS011;48278;52.704;6.536;2023-02-11T04:06:04;72.93;;;15.90;;
58338;SDS011;48278;52.704;6.536;2023-02-11T04:08:30;82.20;;;18.15;;
58338;SDS011;48278;52.704;6.536;2023-02-11T04:10:56;83.32;;;19.02;;
58338;SDS011;48278;52.704;6.536;2023-02-11T04:13:22;83.60;;;19.30;;
58338;SDS011;48278;52.704;6.536;2023-02-11T04:15:48;81.60;;;18.05;;
58338;SDS011;48278;52.704;6.536;2023-02-11T04:18:14;72.82;;;16.40;;
58338;SDS011;48278;52.704;6.536;2023-02-11T04:20:39;90.22;;;19.48;;
58338;SDS011;48278;52.704;6.536;2023-02-11T04:23:05;91.13;;;19.45;;
58338;SDS011;48278;52.704;6.536;2023-02-11T04:25:31;87.03;;;19.13;;
58338;SDS011;48278;52.704;6.536;2023-02-11T04:27:56;111.55;;;23.15;;
58338;SDS011;48278;52.704;6.536;2023-02-11T04:30:22;108.32;;;23.33;;
58338;SDS011;48278;52.704;6.536;2023-02-11T04:32:48;93.60;;;20.17;;
58338;SDS011;48278;52.704;6.536;2023-02-11T04:35:14;91.57;;;20.25;;
58338;SDS011;48278;52.704;6.536;2023-02-11T04:37:39;102.10;;;22.70;;
58338;SDS011;48278;52.704;6.536;2023-02-11T04:40:05;91.35;;;21.77;;
58338;SDS011;48278;52.704;6.536;2023-02-11T04:42:31;114.90;;;23.20;;
58338;SDS011;48278;52.704;6.536;2023-02-11T04:44:57;122.22;;;24.45;;
58338;SDS011;48278;52.704;6.536;2023-02-11T04:47:22;91.35;;;21.45;;
58338;SDS011;48278;52.704;6.536;2023-02-11T04:49:48;102.85;;;23.52;;
58338;SDS011;48278;52.704;6.536;2023-02-11T04:52:14;98.15;;;23.35;;
58338;SDS011;48278;52.704;6.536;2023-02-11T04:54:39;104.95;;;24.77;;
58338;SDS011;48278;52.704;6.536;2023-02-11T04:57:05;110.82;;;26.10;;
58338;SDS011;48278;52.704;6.536;2023-02-11T04:59:31;110.38;;;24.88;;
58338;SDS011;48278;52.704;6.536;2023-02-11T05:01:57;112.35;;;25.80;;
58338;SDS011;48278;52.704;6.536;2023-02-11T05:04:22;119.32;;;24.55;;
58338;SDS011;48278;52.704;6.536;2023-02-11T05:06:48;106.30;;;24.25;;
58338;SDS011;48278;52.704;6.536;2023-02-11T05:09:14;107.88;;;26.33;;
58338;SDS011;48278;52.704;6.536;2023-02-11T05:11:40;109.43;;;25.05;;
58338;SDS011;48278;52.704;6.536;2023-02-11T05:14:07;117.15;;;25.15;;
58338;SDS011;48278;52.704;6.536;2023-02-11T05:16:33;114.38;;;25.38;;
58338;SDS011;48278;52.704;6.536;2023-02-11T05:18:58;102.15;;;25.92;;
58338;SDS011;48278;52.704;6.536;2023-02-11T05:21:24;117.90;;;25.52;;
58338;SDS011;48278;52.704;6.536;2023-02-11T05:23:50;122.38;;;25.27;;
58338;SDS011;48278;52.704;6.536;2023-02-11T05:26:16;118.32;;;25.98;;
58338;SDS011;48278;52.704;6.536;2023-02-11T05:28:43;101.63;;;26.17;;
58338;SDS011;48278;52.704;6.536;2023-02-11T05:31:09;121.57;;;26.92;;
58338;SDS011;48278;52.704;6.536;2023-02-11T05:33:36;120.90;;;30.08;;
58338;SDS011;48278;52.704;6.536;2023-02-11T05:36:03;112.28;;;26.98;;
58338;SDS011;48278;52.704;6.536;2023-02-11T05:38:31;114.32;;;26.83;;
58338;SDS011;48278;52.704;6.536;2023-02-11T05:40:57;118.95;;;29.75;;
58338;SDS011;48278;52.704;6.536;2023-02-11T05:43:23;123.45;;;29.02;;
58338;SDS011;48278;52.704;6.536;2023-02-11T05:45:49;107.50;;;26.67;;
58338;SDS011;48278;52.704;6.536;2023-02-11T05:48:14;121.55;;;28.23;;
58338;SDS011;48278;52.704;6.536;2023-02-11T05:50:40;136.13;;;30.73;;
58338;SDS011;48278;52.704;6.536;2023-02-11T05:53:06;132.57;;;30.42;;
58338;SDS011;48278;52.704;6.536;2023-02-11T05:55:32;121.20;;;28.25;;
58338;SDS011;48278;52.704;6.536;2023-02-11T05:57:58;108.45;;;27.70;;
58338;SDS011;48278;52.704;6.536;2023-02-11T06:00:24;119.45;;;28.77;;
58338;SDS011;48278;52.704;6.536;2023-02-11T06:02:49;109.15;;;27.20;;
58338;SDS011;48278;52.704;6.536;2023-02-11T06:05:15;116.38;;;27.90;;
58338;SDS011;48278;52.704;6.536;2023-02-11T06:07:41;104.90;;;26.70;;
58338;SDS011;48278;52.704;6.536;2023-02-11T06:10:07;130.68;;;29.15;;
58338;SDS011;48278;52.704;6.536;2023-02-11T06:12:33;111.32;;;26.27;;
58338;SDS011;48278;52.704;6.536;2023-02-11T06:15:01;117.22;;;29.23;;
58338;SDS011;48278;52.704;6.536;2023-02-11T06:17:26;123.97;;;30.17;;
58338;SDS011;48278;52.704;6.536;2023-02-11T06:19:57;113.15;;;28.38;;
58338;SDS011;48278;52.704;6.536;2023-02-11T06:22:22;108.95;;;27.15;;
58338;SDS011;48278;52.704;6.536;2023-02-11T06:24:48;109.00;;;27.95;;
58338;SDS011;48278;52.704;6.536;2023-02-11T06:27:14;121.40;;;28.17;;
58338;SDS011;48278;52.704;6.536;2023-02-11T06:29:39;113.40;;;27.77;;
58338;SDS011;48278;52.704;6.536;2023-02-11T06:32:05;115.05;;;25.48;;
58338;SDS011;48278;52.704;6.536;2023-02-11T06:34:31;114.88;;;25.08;;
58338;SDS011;48278;52.704;6.536;2023-02-11T06:36:56;110.55;;;27.33;;
58338;SDS011;48278;52.704;6.536;2023-02-11T06:39:22;117.55;;;26.38;;
58338;SDS011;48278;52.704;6.536;2023-02-11T06:41:48;105.93;;;27.10;;
58338;SDS011;48278;52.704;6.536;2023-02-11T06:44:13;100.40;;;26.05;;
58338;SDS011;48278;52.704;6.536;2023-02-11T06:46:39;111.60;;;26.20;;
58338;SDS011;48278;52.704;6.536;2023-02-11T06:49:05;118.43;;;26.90;;
58338;SDS011;48278;52.704;6.536;2023-02-11T06:51:30;119.95;;;26.10;;
58338;SDS011;48278;52.704;6.536;2023-02-11T06:53:56;105.18;;;24.90;;
58338;SDS011;48278;52.704;6.536;2023-02-11T06:56:22;114.47;;;27.73;;
58338;SDS011;48278;52.704;6.536;2023-02-11T06:58:52;107.78;;;25.98;;
58338;SDS011;48278;52.704;6.536;2023-02-11T07:01:19;116.93;;;27.73;;
58338;SDS011;48278;52.704;6.536;2023-02-11T07:03:46;108.43;;;25.88;;
58338;SDS011;48278;52.704;6.536;2023-02-11T07:06:12;112.07;;;26.67;;
58338;SDS011;48278;52.704;6.536;2023-02-11T07:08:40;112.80;;;26.52;;
58338;SDS011;48278;52.704;6.536;2023-02-11T07:11:11;116.85;;;26.88;;
58338;SDS011;48278;52.704;6.536;2023-02-11T07:13:38;119.68;;;27.70;;
58338;SDS011;48278;52.704;6.536;2023-02-11T07:16:09;116.32;;;27.40;;
58338;SDS011;48278;52.704;6.536;2023-02-11T07:18:36;107.05;;;25.02;;
58338;SDS011;48278;52.704;6.536;2023-02-11T07:21:06;103.72;;;25.63;;
58338;SDS011;48278;52.704;6.536;2023-02-11T07:23:34;117.10;;;27.80;;
58338;SDS011;48278;52.704;6.536;2023-02-11T07:26:04;114.72;;;25.33;;
58338;SDS011;48278;52.704;6.536;2023-02-11T07:28:33;99.95;;;25.52;;
58338;SDS011;48278;52.704;6.536;2023-02-11T07:31:04;114.38;;;27.02;;
58338;SDS011;48278;52.704;6.536;2023-02-11T07:33:34;110.55;;;29.00;;
58338;SDS011;48278;52.704;6.536;2023-02-11T07:36:01;101.53;;;26.20;;
58338;SDS011;48278;52.704;6.536;2023-02-11T07:38:28;107.65;;;27.77;;
58338;SDS011;48278;52.704;6.536;2023-02-11T07:40:59;116.32;;;27.83;;
58338;SDS011;48278;52.704;6.536;2023-02-11T07:43:26;114.53;;;27.08;;
58338;SDS011;48278;52.704;6.536;2023-02-11T07:45:52;112.38;;;29.27;;
58338;SDS011;48278;52.704;6.536;2023-02-11T07:48:18;114.15;;;29.02;;
58338;SDS011;48278;52.704;6.536;2023-02-11T07:50:44;109.80;;;28.48;;
58338;SDS011;48278;52.704;6.536;2023-02-11T07:53:10;112.00;;;29.10;;
58338;SDS011;48278;52.704;6.536;2023-02-11T07:55:35;106.32;;;27.33;;
58338;SDS011;48278;52.704;6.536;2023-02-11T07:58:01;107.75;;;26.20;;
58338;SDS011;48278;52.704;6.536;2023-02-11T08:00:27;108.60;;;28.23;;
58338;SDS011;48278;52.704;6.536;2023-02-11T08:02:53;117.95;;;28.60;;
58338;SDS011;48278;52.704;6.536;2023-02-11T08:05:20;110.90;;;27.38;;
58338;SDS011;48278;52.704;6.536;2023-02-11T08:07:46;112.15;;;27.65;;
58338;SDS011;48278;52.704;6.536;2023-02-11T08:10:14;109.85;;;28.48;;
58338;SDS011;48278;52.704;6.536;2023-02-11T08:12:40;103.82;;;26.60;;
58338;SDS011;48278;52.704;6.536;2023-02-11T08:15:06;110.68;;;27.73;;
58338;SDS011;48278;52.704;6.536;2023-02-11T08:17:33;96.20;;;25.85;;
58338;SDS011;48278;52.704;6.536;2023-02-11T08:20:00;95.88;;;27.48;;
58338;SDS011;48278;52.704;6.536;2023-02-11T08:22:25;104.60;;;27.17;;
58338;SDS011;48278;52.704;6.536;2023-02-11T08:24:51;98.97;;;27.05;;
58338;SDS011;48278;52.704;6.536;2023-02-11T08:27:17;94.30;;;27.33;;
58338;SDS011;48278;52.704;6.536;2023-02-11T08:29:42;112.28;;;27.63;;
58338;SDS011;48278;52.704;6.536;2023-02-11T08:32:08;101.15;;;25.88;;
58338;SDS011;48278;52.704;6.536;2023-02-11T08:34:34;96.38;;;26.45;;
58338;SDS011;48278;52.704;6.536;2023-02-11T08:37:01;92.60;;;25.60;;
58338;SDS011;48278;52.704;6.536;2023-02-11T08:39:27;93.75;;;26.75;;
58338;SDS011;48278;52.704;6.536;2023-02-11T08:41:53;92.82;;;25.05;;
58338;SDS011;48278;52.704;6.536;2023-02-11T08:44:21;89.30;;;23.83;;
58338;SDS011;48278;52.704;6.536;2023-02-11T08:46:47;88.72;;;23.15;;
58338;SDS011;48278;52.704;6.536;2023-02-11T08:49:14;86.78;;;24.63;;
58338;SDS011;48278;52.704;6.536;2023-02-11T08:51:40;93.97;;;26.67;;
58338;SDS011;48278;52.704;6.536;2023-02-11T08:54:06;91.57;;;23.70;;
58338;SDS011;48278;52.704;6.536;2023-02-11T08:56:34;85.35;;;24.10;;
58338;SDS011;48278;52.704;6.536;2023-02-11T08:59:00;101.55;;;27.08;;
58338;SDS011;48278;52.704;6.536;2023-02-11T09:01:27;97.03;;;25.52;;
58338;SDS011;48278;52.704;6.536;2023-02-11T09:03:54;92.78;;;24.55;;
58338;SDS011;48278;52.704;6.536;2023-02-11T09:06:21;84.18;;;24.08;;
58338;SDS011;48278;52.704;6.536;2023-02-11T09:08:49;88.47;;;25.25;;
58338;SDS011;48278;52.704;6.536;2023-02-11T09:11:18;79.38;;;24.45;;
58338;SDS011;48278;52.704;6.536;2023-02-11T09:13:45;84.30;;;23.00;;
58338;SDS011;48278;52.704;6.536;2023-02-11T09:16:15;93.70;;;23.77;;
58338;SDS011;48278;52.704;6.536;2023-02-11T09:18:43;84.32;;;21.98;;
58338;SDS011;48278;52.704;6.536;2023-02-11T09:21:10;87.77;;;23.17;;
58338;SDS011;48278;52.704;6.536;2023-02-11T09:23:36;73.63;;;21.95;;
58338;SDS011;48278;52.704;6.536;2023-02-11T09:26:06;83.55;;;22.98;;
58338;SDS011;48278;52.704;6.536;2023-02-11T09:28:32;82.75;;;22.52;;
58338;SDS011;48278;52.704;6.536;2023-02-11T09:30:58;70.32;;;20.40;;
58338;SDS011;48278;52.704;6.536;2023-02-11T09:33:28;70.88;;;20.55;;
58338;SDS011;48278;52.704;6.536;2023-02-11T09:35:54;74.85;;;22.48;;
58338;SDS011;48278;52.704;6.536;2023-02-11T09:38:19;77.15;;;22.73;;
58338;SDS011;48278;52.704;6.536;2023-02-11T09:40:45;75.68;;;23.98;;
58338;SDS011;48278;52.704;6.536;2023-02-11T09:43:21;69.07;;;20.50;;
58338;SDS011;48278;52.704;6.536;2023-02-11T09:45:52;66.93;;;20.52;;
58338;SDS011;48278;52.704;6.536;2023-02-11T09:48:21;71.15;;;20.02;;
58338;SDS011;48278;52.704;6.536;2023-02-11T09:50:51;69.55;;;20.38;;
58338;SDS011;48278;52.704;6.536;2023-02-11T09:53:24;59.92;;;17.42;;
58338;SDS011;48278;52.704;6.536;2023-02-11T09:55:52;70.05;;;18.75;;
58338;SDS011;48278;52.704;6.536;2023-02-11T09:58:25;70.00;;;20.52;;
58338;SDS011;48278;52.704;6.536;2023-02-11T10:14:35;45.50;;;14.07;;
58338;SDS011;48278;52.704;6.536;2023-02-11T10:22:47;45.42;;;13.13;;
58338;SDS011;48278;52.704;6.536;2023-02-11T10:28:09;48.80;;;13.40;;
58338;SDS011;48278;52.704;6.536;2023-02-11T10:33:35;48.35;;;12.07;;
58338;SDS011;48278;52.704;6.536;2023-02-11T10:36:04;45.97;;;12.65;;
58338;SDS011;48278;52.704;6.536;2023-02-11T10:38:30;50.93;;;13.53;;
58338;SDS011;48278;52.704;6.536;2023-02-11T10:40:57;46.45;;;12.82;;
58338;SDS011;48278;52.704;6.536;2023-02-11T10:43:25;44.70;;;13.27;;
58338;SDS011;48278;52.704;6.536;2023-02-11T10:45:55;52.28;;;13.40;;
58338;SDS011;48278;52.704;6.536;2023-02-11T10:48:41;47.92;;;12.65;;
58338;SDS011;48278;52.704;6.536;2023-02-11T10:56:39;42.78;;;12.95;;
58338;SDS011;48278;52.704;6.536;2023-02-11T11:01:56;46.85;;;14.77;;
58338;SDS011;48278;52.704;6.536;2023-02-11T11:04:42;39.67;;;11.68;;
58338;SDS011;48278;52.704;6.536;2023-02-11T11:07:17;44.92;;;12.85;;
58338;SDS011;48278;52.704;6.536;2023-02-11T11:09:49;38.38;;;11.90;;
58338;SDS011;48278;52.704;6.536;2023-02-11T11:17:43;40.88;;;12.43;;
58338;SDS011;48278;52.704;6.536;2023-02-11T11:22:44;39.95;;;12.18;;
58338;SDS011;48278;52.704;6.536;2023-02-11T11:25:23;53.25;;;13.15;;
58338;SDS011;48278;52.704;6.536;2023-02-11T11:27:53;40.90;;;12.48;;
58338;SDS011;48278;52.704;6.536;2023-02-11T11:30:26;39.60;;;12.10;;
58338;SDS011;48278;52.704;6.536;2023-02-11T11:33:02;42.85;;;12.20;;
58338;SDS011;48278;52.704;6.536;2023-02-11T11:35:29;43.63;;;13.05;;
58338;SDS011;48278;52.704;6.536;2023-02-11T11:37:57;40.03;;;12.05;;
58338;SDS011;48278;52.704;6.536;2023-02-11T11:40:26;45.00;;;13.95;;
58338;SDS011;48278;52.704;6.536;2023-02-11T11:45:38;41.75;;;11.50;;
58338;SDS011;48278;52.704;6.536;2023-02-11T11:51:03;41.03;;;12.90;;
58338;SDS011;48278;52.704;6.536;2023-02-11T11:56:25;40.17;;;13.07;;
58338;SDS011;48278;52.704;6.536;2023-02-11T11:59:02;41.65;;;12.25;;
58338;SDS011;48278;52.704;6.536;2023-02-11T12:21:12;37.47;;;11.63;;
58338;SDS011;48278;52.704;6.536;2023-02-11T12:26:55;41.13;;;10.88;;
58338;SDS011;48278;52.704;6.536;2023-02-11T12:29:37;33.67;;;10.73;;
58338;SDS011;48278;52.704;6.536;2023-02-11T12:32:25;31.60;;;10.40;;
58338;SDS011;48278;52.704;6.536;2023-02-11T12:38:04;31.35;;;9.80;;
58338;SDS011;48278;52.704;6.536;2023-02-11T12:43:35;32.50;;;9.55;;
58338;SDS011;48278;52.704;6.536;2023-02-11T12:48:44;34.72;;;10.05;;
58338;SDS011;48278;52.704;6.536;2023-02-11T12:51:44;29.52;;;9.68;;
58338;SDS011;48278;52.704;6.536;2023-02-11T12:54:34;23.70;;;8.25;;
58338;SDS011;48278;52.704;6.536;2023-02-11T12:57:13;29.15;;;8.40;;
58338;SDS011;48278;52.704;6.536;2023-02-11T13:05:04;27.35;;;8.07;;
58338;SDS011;48278;52.704;6.536;2023-02-11T13:07:44;23.58;;;7.40;;
58338;SDS011;48278;52.704;6.536;2023-02-11T13:13:08;28.67;;;7.43;;
58338;SDS011;48278;52.704;6.536;2023-02-11T13:21:46;18.00;;;5.93;;
58338;SDS011;48278;52.704;6.536;2023-02-11T13:24:28;23.27;;;6.72;;
58338;SDS011;48278;52.704;6.536;2023-02-11T13:27:02;27.27;;;7.25;;
58338;SDS011;48278;52.704;6.536;2023-02-11T13:35:38;19.23;;;5.55;;
58338;SDS011;48278;52.704;6.536;2023-02-11T13:40:41;24.63;;;6.22;;
58338;SDS011;48278;52.704;6.536;2023-02-11T13:43:18;27.00;;;6.00;;
58338;SDS011;48278;52.704;6.536;2023-02-11T13:45:47;22.35;;;5.90;;
58338;SDS011;48278;52.704;6.536;2023-02-11T13:48:22;20.77;;;6.20;;
58338;SDS011;48278;52.704;6.536;2023-02-11T13:50:54;26.52;;;5.82;;
58338;SDS011;48278;52.704;6.536;2023-02-11T13:53:41;14.43;;;5.60;;
58338;SDS011;48278;52.704;6.536;2023-02-11T13:56:10;23.60;;;6.20;;
58338;SDS011;48278;52.704;6.536;2023-02-11T13:58:47;28.70;;;6.35;;
58338;SDS011;48278;52.704;6.536;2023-02-11T14:04:05;20.63;;;6.38;;
58338;SDS011;48278;52.704;6.536;2023-02-11T14:21:12;21.75;;;5.65;;
58338;SDS011;48278;52.704;6.536;2023-02-11T14:23:41;26.58;;;6.40;;
58338;SDS011;48278;52.704;6.536;2023-02-11T14:31:43;27.42;;;5.68;;
58338;SDS011;48278;52.704;6.536;2023-02-11T14:39:49;24.45;;;5.43;;
58338;SDS011;48278;52.704;6.536;2023-02-11T14:42:23;18.50;;;4.75;;
58338;SDS011;48278;52.704;6.536;2023-02-11T14:44:52;18.13;;;4.93;;
58338;SDS011;48278;52.704;6.536;2023-02-11T14:47:28;30.25;;;5.43;;
58338;SDS011;48278;52.704;6.536;2023-02-11T14:53:12;21.08;;;4.30;;
58338;SDS011;48278;52.704;6.536;2023-02-11T14:55:42;14.68;;;4.32;;
58338;SDS011;48278;52.704;6.536;2023-02-11T14:58:12;17.70;;;4.55;;
58338;SDS011;48278;52.704;6.536;2023-02-11T15:03:34;26.23;;;5.55;;
58338;SDS011;48278;52.704;6.536;2023-02-11T15:06:18;21.85;;;4.90;;
58338;SDS011;48278;52.704;6.536;2023-02-11T15:08:48;26.52;;;5.85;;
58338;SDS011;48278;52.704;6.536;2023-02-11T15:11:41;18.42;;;5.05;;
58338;SDS011;48278;52.704;6.536;2023-02-11T15:14:31;21.73;;;5.47;;
58338;SDS011;48278;52.704;6.536;2023-02-11T15:17:02;16.35;;;4.28;;
58338;SDS011;48278;52.704;6.536;2023-02-11T15:19:43;20.88;;;4.25;;
58338;SDS011;48278;52.704;6.536;2023-02-11T15:22:19;25.50;;;3.67;;
58338;SDS011;48278;52.704;6.536;2023-02-11T15:27:40;15.68;;;3.70;;
58338;SDS011;48278;52.704;6.536;2023-02-11T15:30:24;15.00;;;4.03;;
58338;SDS011;48278;52.704;6.536;2023-02-11T15:32:52;20.08;;;4.50;;
58338;SDS011;48278;52.704;6.536;2023-02-11T15:37:56;17.80;;;3.50;;
58338;SDS011;48278;52.704;6.536;2023-02-11T15:40:24;20.42;;;4.47;;
58338;SDS011;48278;52.704;6.536;2023-02-11T15:42:56;24.48;;;3.92;;
58338;SDS011;48278;52.704;6.536;2023-02-11T15:45:25;20.52;;;4.15;;
58338;SDS011;48278;52.704;6.536;2023-02-11T15:47:58;16.80;;;3.72;;
58338;SDS011;48278;52.704;6.536;2023-02-11T15:50:40;21.42;;;4.40;;
58338;SDS011;48278;52.704;6.536;2023-02-11T15:56:37;19.20;;;4.50;;
58338;SDS011;48278;52.704;6.536;2023-02-11T15:58:43;21.08;;;4.10;;
58338;SDS011;48278;52.704;6.536;2023-02-11T16:01:11;20.30;;;4.55;;
58338;SDS011;48278;52.704;6.536;2023-02-11T16:03:39;20.48;;;4.88;;
58338;SDS011;48278;52.704;6.536;2023-02-11T16:06:19;16.38;;;4.00;;
58338;SDS011;48278;52.704;6.536;2023-02-11T16:08:56;17.52;;;4.60;;
58338;SDS011;48278;52.704;6.536;2023-02-11T16:11:26;29.15;;;5.45;;
58338;SDS011;48278;52.704;6.536;2023-02-11T16:13:58;17.92;;;5.85;;
58338;SDS011;48278;52.704;6.536;2023-02-11T16:16:29;28.40;;;5.47;;
58338;SDS011;48278;52.704;6.536;2023-02-11T16:18:58;20.33;;;4.88;;
58338;SDS011;48278;52.704;6.536;2023-02-11T16:21:32;18.73;;;4.20;;
58338;SDS011;48278;52.704;6.536;2023-02-11T16:24:03;28.52;;;5.30;;
58338;SDS011;48278;52.704;6.536;2023-02-11T16:26:38;17.02;;;4.15;;
58338;SDS011;48278;52.704;6.536;2023-02-11T16:29:11;21.17;;;4.18;;
58338;SDS011;48278;52.704;6.536;2023-02-11T16:31:41;24.25;;;5.00;;
58338;SDS011;48278;52.704;6.536;2023-02-11T16:34:42;19.02;;;4.07;;
58338;SDS011;48278;52.704;6.536;2023-02-11T16:37:02;30.20;;;5.43;;
58338;SDS011;48278;52.704;6.536;2023-02-11T16:39:29;25.30;;;4.65;;
58338;SDS011;48278;52.704;6.536;2023-02-11T16:41:55;23.55;;;4.70;;
58338;SDS011;48278;52.704;6.536;2023-02-11T16:44:22;23.63;;;4.95;;
58338;SDS011;48278;52.704;6.536;2023-02-11T16:46:48;26.70;;;5.32;;
58338;SDS011;48278;52.704;6.536;2023-02-11T16:49:23;21.27;;;4.43;;
58338;SDS011;48278;52.704;6.536;2023-02-11T16:51:52;24.67;;;4.38;;
58338;SDS011;48278;52.704;6.536;2023-02-11T16:54:21;34.10;;;5.07;;
58338;SDS011;48278;52.704;6.536;2023-02-11T16:56:47;26.63;;;4.65;;
58338;SDS011;48278;52.704;6.536;2023-02-11T16:59:13;31.15;;;5.65;;
58338;SDS011;48278;52.704;6.536;2023-02-11T17:01:39;29.05;;;5.85;;
58338;SDS011;48278;52.704;6.536;2023-02-11T17:06:35;20.75;;;5.22;;
58338;SDS011;48278;52.704;6.536;2023-02-11T17:09:01;28.45;;;6.90;;
58338;SDS011;48278;52.704;6.536;2023-02-11T17:11:27;25.63;;;6.10;;
58338;SDS011;48278;52.704;6.536;2023-02-11T17:13:52;31.52;;;6.32;;
58338;SDS011;48278;52.704;6.536;2023-02-11T17:16:19;31.05;;;7.22;;
58338;SDS011;48278;52.704;6.536;2023-02-11T17:18:47;27.58;;;6.30;;
58338;SDS011;48278;52.704;6.536;2023-02-11T17:21:13;28.75;;;7.22;;
58338;SDS011;48278;52.704;6.536;2023-02-11T17:23:39;29.45;;;7.57;;
58338;SDS011;48278;52.704;6.536;2023-02-11T17:26:05;25.50;;;7.13;;
58338;SDS011;48278;52.704;6.536;2023-02-11T17:28:31;34.88;;;7.97;;
58338;SDS011;48278;52.704;6.536;2023-02-11T17:30:57;26.77;;;7.43;;
58338;SDS011;48278;52.704;6.536;2023-02-11T17:33:24;29.02;;;6.82;;
58338;SDS011;48278;52.704;6.536;2023-02-11T17:35:50;36.33;;;8.88;;